Time,TemperatureF,DewpointF,PressureIn,WindDirection,WindDirectionDegrees,WindSpeedMPH,WindSpeedGustMPH,Humidity,HourlyPrecipIn,Conditions,Clouds,dailyrainin,SolarRadiationWatts/m^2,SoftwareType,DateUTC
2013-02-07 00:00:00,38.5,34.1,29.76,NNW,334,6.0,9.2,84,0.01,BKN,,0.24,0.0,WeatherDisplay:10.37,2013-02-06 23:00:00,
2013-02-07 00:05:00,38.5,34.1,29.76,NNW,336,5.2,8.1,84,0.01,BKN,,0.24,0.0,WeatherDisplay:10.37,2013-02-06 23:05:00,
2013-02-07 00:10:00,38.6,34.5,29.76,NNW,334,8.8,11.5,85,0.01,RA,,0.00,0.0,WeatherDisplay:10.37,2013-02-06 23:10:00,
2013-02-07 00:15:00,38.7,34.6,29.76,NNW,346,7.8,11.5,85,0.01,RA,,0.00,0.0,WeatherDisplay:10.37,2013-02-06 23:15:00,
2013-02-07 00:20:00,38.8,34.7,29.76,NNW,339,5.8,11.5,85,0.01,RA,,0.00,0.0,WeatherDisplay:10.37,2013-02-06 23:20:00,
2013-02-07 00:25:00,38.9,35.0,29.77,NNW,339,4.7,6.9,86,0.01,RA,,0.00,0.0,WeatherDisplay:10.37,2013-02-06 23:25:00,
2013-02-07 00:30:00,39.0,35.1,29.77,NNW,343,10.1,13.8,86,0.01,RA,,0.00,0.0,WeatherDisplay:10.37,2013-02-06 23:30:00,
2013-02-07 00:35:00,39.1,35.0,29.77,NNW,335,7.6,12.7,85,0.00,BKN,,0.00,0.0,WeatherDisplay:10.37,2013-02-06 23:35:00,
2013-02-07 00:40:00,39.1,35.0,29.77,North,351,7.3,15.0,85,0.00,FEW,,0.00,0.0,WeatherDisplay:10.37,2013-02-06 23:40:00,
2013-02-07 00:45:00,39.2,34.8,29.77,NNW,332,5.7,11.5,84,0.00,FEW,,0.00,0.0,WeatherDisplay:10.37,2013-02-06 23:45:00,
2013-02-07 00:50:00,39.3,34.8,29.77,North,351,7.3,12.0,84,0.00,FEW,,0.00,0.0,WeatherDisplay:10.37,2013-02-06 23:50:00,
2013-02-07 00:55:00,39.4,34.9,29.78,North,1,6.4,10.0,84,0.00,FEW,,0.00,0.0,WeatherDisplay:10.37,2013-02-06 23:55:00,
2013-02-07 01:00:00,38.8,34.1,29.78,North,1,8.9,20.7,83,0.00,FEW,,0.00,0.0,WeatherDisplay:10.37,2013-02-07 00:00:00,
2013-02-07 01:05:00,38.2,34.1,29.78,NNE,24,8.2,16.1,85,0.00,FEW,,0.00,0.0,WeatherDisplay:10.37,2013-02-07 00:05:00,
2013-02-07 01:10:00,38.0,34.2,29.78,North,351,6.3,9.2,86,0.00,FEW,,0.00,0.0,WeatherDisplay:10.37,2013-02-07 00:10:00,
2013-02-07 01:15:00,37.9,34.1,29.78,NNW,339,6.0,7.0,86,0.00,FEW,,0.00,0.0,WeatherDisplay:10.37,2013-02-07 00:15:00,
2013-02-07 01:20:00,38.0,34.2,29.78,NNW,338,8.0,15.0,86,0.00,FEW,,0.00,0.0,WeatherDisplay:10.37,2013-02-07 00:20:00,
2013-02-07 01:25:00,38.1,34.3,29.78,NNW,332,11.0,19.6,86,0.00,FEW,,0.00,0.0,WeatherDisplay:10.37,2013-02-07 00:25:00,
2013-02-07 01:30:00,38.2,34.4,29.78,NNW,341,8.6,10.4,86,0.00,FEW,,0.00,0.0,WeatherDisplay:10.37,2013-02-07 00:30:00,
2013-02-07 01:35:00,38.3,34.5,29.78,NW,326,7.3,11.5,86,0.00,FEW,,0.00,0.0,WeatherDisplay:10.37,2013-02-07 00:35:00,
2013-02-07 01:40:00,38.4,34.6,29.78,NW,325,6.9,11.5,86,0.00,FEW,,0.00,0.0,WeatherDisplay:10.37,2013-02-07 00:40:00,
2013-02-07 01:45:00,38.4,34.6,29.78,NNW,342,5.9,11.5,86,0.00,FEW,,0.00,0.0,WeatherDisplay:10.37,2013-02-07 00:45:00,
2013-02-07 01:50:00,38.5,34.4,29.78,North,7,8.4,11.5,85,0.00,FEW,,0.00,0.0,WeatherDisplay:10.37,2013-02-07 00:50:00,
2013-02-07 01:55:00,38.6,34.5,29.78,North,351,5.3,12.7,85,0.00,FEW,,0.00,0.0,WeatherDisplay:10.37,2013-02-07 00:55:00,
2013-02-07 02:00:00,38.8,34.4,29.78,North,351,5.8,12.0,84,0.00,FEW,,0.00,0.0,WeatherDisplay:10.37,2013-02-07 01:00:00,
2013-02-07 02:05:00,38.4,33.7,29.79,North,351,7.0,13.8,83,0.01,RA,,0.01,0.0,WeatherDisplay:10.37,2013-02-07 01:05:00,
2013-02-07 02:10:00,38.3,34.2,29.79,North,351,8.2,10.4,85,0.01,RA,,0.01,0.0,WeatherDisplay:10.37,2013-02-07 01:10:00,
2013-02-07 02:15:00,38.3,34.5,29.79,North,11,11.4,21.9,86,0.01,RA,,0.01,0.0,WeatherDisplay:10.37,2013-02-07 01:15:00,
2013-02-07 02:20:00,38.2,34.7,29.79,NNW,339,9.1,13.8,87,0.01,RA,,0.01,0.0,WeatherDisplay:10.37,2013-02-07 01:20:00,
2013-02-07 02:25:00,38.0,34.5,29.79,North,5,8.1,15.0,87,0.01,RA,,0.01,0.0,WeatherDisplay:10.37,2013-02-07 01:25:00,
2013-02-07 02:30:00,37.7,33.9,29.79,NNW,346,8.0,17.3,86,0.01,RA,,0.01,0.0,WeatherDisplay:10.37,2013-02-07 01:30:00,
2013-02-07 02:35:00,37.6,33.8,29.79,NNW,347,4.9,9.2,86,0.01,FEW,,0.01,0.0,WeatherDisplay:10.37,2013-02-07 01:35:00,
2013-02-07 02:40:00,37.7,33.9,29.79,NNW,340,9.0,12.7,86,0.01,FEW,,0.01,0.0,WeatherDisplay:10.37,2013-02-07 01:40:00,
2013-02-07 02:45:00,37.9,33.8,29.79,WNW,300,6.7,9.2,85,0.01,FEW,,0.01,0.0,WeatherDisplay:10.37,2013-02-07 01:45:00,
2013-02-07 02:50:00,38.1,34.0,29.79,NW,315,5.4,9.2,85,0.01,FEW,,0.01,0.0,WeatherDisplay:10.37,2013-02-07 01:50:00,
2013-02-07 02:55:00,38.3,34.2,29.80,North,351,7.4,10.4,85,0.01,FEW,,0.01,0.0,WeatherDisplay:10.37,2013-02-07 01:55:00,
2013-02-07 03:00:00,37.9,34.1,29.80,NW,316,12.8,19.6,86,0.02,RA,,0.02,0.0,WeatherDisplay:10.37,2013-02-07 02:00:00,
2013-02-07 03:05:00,37.6,34.1,29.79,NW,317,7.9,12.7,87,0.01,RA,,0.02,0.0,WeatherDisplay:10.37,2013-02-07 02:05:00,
2013-02-07 03:10:00,37.5,34.0,29.79,NNE,16,8.4,11.5,87,0.02,RA,,0.02,0.0,WeatherDisplay:10.37,2013-02-07 02:10:00,
2013-02-07 03:15:00,37.5,34.2,29.79,NNW,333,7.9,9.2,88,0.02,RA,,0.02,0.0,WeatherDisplay:10.37,2013-02-07 02:15:00,
2013-02-07 03:20:00,37.6,34.3,29.79,NW,305,6.5,9.2,88,0.02,RA,,0.02,0.0,WeatherDisplay:10.37,2013-02-07 02:20:00,
2013-02-07 03:25:00,37.7,34.4,29.79,NW,322,6.4,11.5,88,0.02,RA,,0.02,0.0,WeatherDisplay:10.37,2013-02-07 02:25:00,
2013-02-07 03:30:00,38.0,34.7,29.79,NW,318,6.0,10.4,88,0.02,RA,,0.02,0.0,WeatherDisplay:10.37,2013-02-07 02:30:00,
2013-02-07 03:35:00,38.2,36.1,29.80,NNW,342,7.0,10.4,92,0.02,FEW,,0.02,0.0,WeatherDisplay:10.37,2013-02-07 02:35:00,
2013-02-07 03:40:00,38.5,34.4,29.79,NW,319,7.1,11.5,85,0.02,FEW,,0.02,0.0,WeatherDisplay:10.37,2013-02-07 02:40:00,
2013-02-07 03:45:00,38.8,34.7,29.80,North,356,9.5,12.7,85,0.02,FEW,,0.02,0.0,WeatherDisplay:10.37,2013-02-07 02:45:00,
2013-02-07 03:50:00,39.0,34.6,29.79,NNE,26,9.4,17.3,84,0.02,FEW,,0.02,0.0,WeatherDisplay:10.37,2013-02-07 02:50:00,
2013-02-07 03:55:00,39.1,34.7,29.79,NNW,334,10.0,14.0,84,0.02,FEW,,0.02,0.0,WeatherDisplay:10.37,2013-02-07 02:55:00,
2013-02-07 04:00:00,39.1,34.4,29.79,North,1,7.0,11.5,83,0.01,FEW,,0.02,0.0,WeatherDisplay:10.37,2013-02-07 03:00:00,
2013-02-07 04:05:00,39.1,34.4,29.79,NNW,334,11.0,16.1,83,0.01,FEW,,0.02,0.0,WeatherDisplay:10.37,2013-02-07 03:05:00,
2013-02-07 04:10:00,39.2,34.5,29.79,NNE,18,5.4,9.0,83,0.00,FEW,,0.02,0.0,WeatherDisplay:10.37,2013-02-07 03:10:00,
2013-02-07 04:15:00,39.0,34.6,29.79,NW,315,8.7,17.3,84,0.00,FEW,,0.02,0.0,WeatherDisplay:10.37,2013-02-07 03:15:00,
2013-02-07 04:20:00,39.1,34.7,29.79,NNW,328,11.4,15.0,84,0.00,FEW,,0.02,0.0,WeatherDisplay:10.37,2013-02-07 03:20:00,
2013-02-07 04:25:00,39.2,34.5,29.79,NNW,342,10.1,12.7,83,0.00,FEW,,0.02,0.0,WeatherDisplay:10.37,2013-02-07 03:25:00,
2013-02-07 04:30:00,39.3,34.2,29.79,NW,315,12.3,16.1,82,0.00,FEW,,0.02,0.0,WeatherDisplay:10.37,2013-02-07 03:30:00,
2013-02-07 04:35:00,39.3,34.2,29.79,NNW,332,11.0,17.3,82,0.00,FEW,,0.02,0.0,WeatherDisplay:10.37,2013-02-07 03:35:00,
2013-02-07 04:40:00,39.3,33.9,29.79,NNW,343,9.3,11.5,81,0.00,FEW,,0.02,0.0,WeatherDisplay:10.37,2013-02-07 03:40:00,
2013-02-07 04:45:00,39.2,33.8,29.79,NW,322,8.6,17.3,81,0.00,FEW,,0.02,0.0,WeatherDisplay:10.37,2013-02-07 03:45:00,
2013-02-07 04:50:00,39.2,34.1,29.79,NW,323,10.9,16.1,82,0.00,FEW,,0.02,0.0,WeatherDisplay:10.37,2013-02-07 03:50:00,
2013-02-07 04:55:00,39.2,34.1,29.79,NW,307,8.0,12.7,82,0.00,FEW,,0.02,0.0,WeatherDisplay:10.37,2013-02-07 03:55:00,
2013-02-07 05:00:00,39.3,34.2,29.80,WNW,298,12.9,15.0,82,0.00,FEW,,0.02,0.0,WeatherDisplay:10.37,2013-02-07 04:00:00,
2013-02-07 05:05:00,39.1,34.0,29.80,NW,317,10.3,17.3,82,0.00,FEW,,0.02,0.0,WeatherDisplay:10.37,2013-02-07 04:05:00,
2013-02-07 05:10:00,38.9,34.2,29.80,NW,320,10.1,12.7,83,0.00,FEW,,0.02,0.0,WeatherDisplay:10.37,2013-02-07 04:10:00,
2013-02-07 05:15:00,38.8,34.1,29.80,NNW,327,9.5,12.7,83,0.00,FEW,,0.02,0.0,WeatherDisplay:10.37,2013-02-07 04:15:00,
2013-02-07 05:20:00,38.9,34.2,29.80,NNW,336,9.1,13.8,83,0.00,FEW,,0.02,0.0,WeatherDisplay:10.37,2013-02-07 04:20:00,
2013-02-07 05:25:00,39.1,34.4,29.80,NW,313,6.7,10.4,83,0.00,FEW,,0.02,0.0,WeatherDisplay:10.37,2013-02-07 04:25:00,
2013-02-07 05:30:00,39.2,34.8,29.80,NNW,344,9.1,11.5,84,0.00,FEW,,0.02,0.0,WeatherDisplay:10.37,2013-02-07 04:30:00,
2013-02-07 05:35:00,39.3,34.5,29.80,NW,319,9.3,12.0,83,0.00,FEW,,0.02,0.0,WeatherDisplay:10.37,2013-02-07 04:35:00,
2013-02-07 05:40:00,39.4,34.6,29.80,North,1,7.8,12.7,83,0.00,FEW,,0.02,0.0,WeatherDisplay:10.37,2013-02-07 04:40:00,
2013-02-07 05:45:00,39.5,34.4,29.80,North,356,8.5,13.8,82,0.00,FEW,,0.02,0.0,WeatherDisplay:10.37,2013-02-07 04:45:00,
2013-02-07 05:50:00,39.7,34.6,29.80,NNW,344,9.0,12.7,82,0.00,FEW,,0.02,0.0,WeatherDisplay:10.37,2013-02-07 04:50:00,
2013-02-07 05:55:00,39.2,34.8,29.81,NNW,334,12.6,26.5,84,0.01,RA,,0.03,0.0,WeatherDisplay:10.37,2013-02-07 04:55:00,
2013-02-07 06:00:00,38.5,34.7,29.81,NNW,328,10.8,17.3,86,0.01,RA,,0.03,0.0,WeatherDisplay:10.37,2013-02-07 05:00:00,
2013-02-07 06:01:00,38.4,34.6,29.81,NNW,340,11.4,15.0,86,0.01,RA,,0.03,0.0,WeatherDisplay:10.37,2013-02-07 05:01:00,
2013-02-07 06:06:00,38.1,34.6,29.81,North,351,6.8,12.0,87,0.01,RA,,0.03,0.0,WeatherDisplay:10.37,2013-02-07 05:06:00,
2013-02-07 06:11:00,37.9,34.4,29.80,North,1,10.3,17.3,87,0.01,RA,,0.03,0.0,WeatherDisplay:10.37,2013-02-07 05:11:00,
2013-02-07 06:16:00,37.9,34.4,29.81,NNW,329,6.5,13.0,87,0.01,RA,,0.03,0.0,WeatherDisplay:10.37,2013-02-07 05:16:00,
2013-02-07 06:21:00,38.0,34.7,29.81,North,5,4.5,6.9,88,0.01,FEW,,0.03,0.0,WeatherDisplay:10.37,2013-02-07 05:21:00,
2013-02-07 06:26:00,38.0,34.7,29.81,North,356,13.3,19.6,88,0.02,RA,,0.04,0.0,WeatherDisplay:10.37,2013-02-07 05:26:00,
2013-02-07 06:31:00,38.0,34.7,29.81,North,356,7.6,12.7,88,0.02,RA,,0.04,0.0,WeatherDisplay:10.37,2013-02-07 05:31:00,
2013-02-07 06:36:00,38.0,35.0,29.81,NW,326,8.2,12.7,89,0.02,RA,,0.04,0.0,WeatherDisplay:10.37,2013-02-07 05:36:00,
2013-02-07 06:41:00,38.0,35.0,29.82,North,356,9.1,15.0,89,0.02,RA,,0.04,0.0,WeatherDisplay:10.37,2013-02-07 05:41:00,
2013-02-07 06:46:00,38.2,35.2,29.82,NNW,346,10.7,14.0,89,0.02,RA,,0.04,0.0,WeatherDisplay:10.37,2013-02-07 05:46:00,
2013-02-07 06:51:00,38.3,35.3,29.82,NNE,13,14.0,20.7,89,0.02,FEW,,0.04,0.0,WeatherDisplay:10.37,2013-02-07 05:51:00,
2013-02-07 06:56:00,38.2,35.2,29.82,NNW,341,7.4,11.5,89,0.01,FEW,,0.04,0.0,WeatherDisplay:10.37,2013-02-07 05:56:00,
2013-02-07 07:01:00,38.2,35.2,29.82,NW,321,6.1,15.0,89,0.01,FEW,,0.04,0.0,WeatherDisplay:10.37,2013-02-07 06:01:00,
2013-02-07 07:06:00,38.2,34.9,29.82,NNW,334,10.9,17.3,88,0.01,FEW,,0.04,0.0,WeatherDisplay:10.37,2013-02-07 06:06:00,
2013-02-07 07:11:00,38.1,34.8,29.82,NNW,327,6.0,13.0,88,0.01,FEW,,0.04,0.0,WeatherDisplay:10.37,2013-02-07 06:11:00,
2013-02-07 07:16:00,38.1,34.6,29.82,North,351,8.2,17.3,87,0.01,FEW,,0.04,0.0,WeatherDisplay:10.37,2013-02-07 06:16:00,
2013-02-07 07:21:00,38.0,34.5,29.83,North,11,6.8,11.5,87,0.01,FEW,,0.04,0.0,WeatherDisplay:10.37,2013-02-07 06:21:00,
2013-02-07 07:26:00,38.0,34.5,29.82,NNW,341,4.8,10.4,87,0.00,FEW,,0.04,0.0,WeatherDisplay:10.37,2013-02-07 06:26:00,
2013-02-07 07:31:00,38.1,34.6,29.83,NNW,328,7.5,12.0,87,0.00,FEW,,0.04,0.0,WeatherDisplay:10.37,2013-02-07 06:31:00,
2013-02-07 07:36:00,38.2,34.7,29.83,NNW,340,6.9,9.2,87,0.00,FEW,,0.04,0.0,WeatherDisplay:10.37,2013-02-07 06:36:00,
2013-02-07 07:41:00,38.4,34.8,29.83,NNW,340,9.2,15.0,87,0.00,FEW,,0.04,0.0,WeatherDisplay:10.37,2013-02-07 06:41:00,
2013-02-07 07:46:00,38.6,35.0,29.83,NNW,344,8.8,16.1,87,0.00,FEW,,0.04,0.0,WeatherDisplay:10.37,2013-02-07 06:46:00,
2013-02-07 07:51:00,38.4,34.8,29.83,NNW,334,9.9,12.7,87,0.00,BKN,,0.04,0.0,WeatherDisplay:10.37,2013-02-07 06:51:00,
2013-02-07 07:56:00,38.0,34.2,29.83,NW,325,9.4,15.0,86,0.00,BKN,,0.04,0.0,WeatherDisplay:10.37,2013-02-07 06:56:00,
2013-02-07 08:01:00,37.8,34.0,29.83,NNW,341,5.5,15.0,86,0.00,BKN,,0.04,0.0,WeatherDisplay:10.37,2013-02-07 07:01:00,
2013-02-07 08:06:00,37.7,33.6,29.84,NNW,340,5.4,9.2,85,0.00,BKN,,0.04,0.0,WeatherDisplay:10.37,2013-02-07 07:06:00,
2013-02-07 08:11:00,37.6,33.5,29.84,NNW,332,6.5,10.4,85,0.00,BKN,,0.04,0.0,WeatherDisplay:10.37,2013-02-07 07:11:00,
2013-02-07 08:16:00,37.6,33.5,29.84,NNW,333,7.9,11.5,85,0.00,BKN,,0.04,5.0,WeatherDisplay:10.37,2013-02-07 07:16:00,
2013-02-07 08:21:00,37.7,33.9,29.84,NNW,341,7.9,12.7,86,0.00,BKN,,0.04,7.0,WeatherDisplay:10.37,2013-02-07 07:21:00,
2013-02-07 08:26:00,37.8,34.0,29.84,NNW,342,7.7,11.5,86,0.00,BKN,,0.04,7.0,WeatherDisplay:10.37,2013-02-07 07:26:00,
2013-02-07 08:31:00,37.9,34.1,29.84,NNW,331,5.7,8.1,86,0.00,BKN,,0.04,12.0,WeatherDisplay:10.37,2013-02-07 07:31:00,
2013-02-07 08:36:00,38.1,34.6,29.84,NNW,327,6.3,13.8,87,0.00,BKN,,0.04,11.0,WeatherDisplay:10.37,2013-02-07 07:36:00,
2013-02-07 08:41:00,38.2,34.4,29.84,NNW,336,8.7,12.7,86,0.00,BKN,,0.04,11.0,WeatherDisplay:10.37,2013-02-07 07:41:00,
2013-02-07 08:46:00,38.4,34.3,29.84,NNW,340,7.2,13.0,85,0.00,BKN,,0.04,18.0,WeatherDisplay:10.37,2013-02-07 07:46:00,
2013-02-07 08:51:00,38.7,34.3,29.84,NNW,335,7.4,10.4,84,0.00,FEW,,0.04,26.0,WeatherDisplay:10.37,2013-02-07 07:51:00,
2013-02-07 08:56:00,38.8,34.1,29.85,NNW,338,8.3,11.5,83,0.00,FEW,,0.04,26.0,WeatherDisplay:10.37,2013-02-07 07:56:00,
2013-02-07 09:01:00,38.9,33.9,29.85,North,351,10.1,15.0,82,0.00,FEW,,0.04,30.0,WeatherDisplay:10.37,2013-02-07 08:01:00,
2013-02-07 09:06:00,39.0,33.6,29.85,NNW,329,7.4,11.5,81,0.00,FEW,,0.04,40.0,WeatherDisplay:10.37,2013-02-07 08:06:00,
2013-02-07 09:11:00,39.1,33.7,29.85,North,1,9.0,14.0,81,0.00,FEW,,0.04,26.0,WeatherDisplay:10.37,2013-02-07 08:11:00,
2013-02-07 09:16:00,39.0,33.6,29.85,NNW,343,7.5,11.5,81,0.00,FEW,,0.04,42.0,WeatherDisplay:10.37,2013-02-07 08:16:00,
2013-02-07 09:21:00,39.2,33.8,29.85,NNW,347,8.5,11.5,81,0.00,BKN,,0.04,35.0,WeatherDisplay:10.37,2013-02-07 08:21:00,
2013-02-07 09:26:00,39.2,33.8,29.85,NNW,336,8.6,12.0,81,0.00,BKN,,0.04,107.0,WeatherDisplay:10.37,2013-02-07 08:26:00,
2013-02-07 09:31:00,39.3,33.9,29.85,North,351,7.0,9.2,81,0.01,RA,,0.05,28.0,WeatherDisplay:10.37,2013-02-07 08:31:00,
2013-02-07 09:36:00,39.2,34.1,29.86,North,1,12.5,19.6,82,0.01,RA,,0.05,32.0,WeatherDisplay:10.37,2013-02-07 08:36:00,
2013-02-07 09:41:00,39.0,34.3,29.86,North,7,11.5,17.3,83,0.01,RA,,0.05,76.0,WeatherDisplay:10.37,2013-02-07 08:41:00,
2013-02-07 09:46:00,38.3,34.2,29.86,NNW,341,9.3,18.4,85,0.01,RA,,0.05,37.0,WeatherDisplay:10.37,2013-02-07 08:46:00,
2013-02-07 09:51:00,37.3,33.2,29.86,NNW,334,7.1,12.7,85,0.02,RA,,0.06,53.0,WeatherDisplay:10.37,2013-02-07 08:51:00,
2013-02-07 09:56:00,36.8,33.3,29.86,NW,311,7.9,11.0,87,0.02,RA,,0.06,186.0,WeatherDisplay:10.37,2013-02-07 08:56:00,
2013-02-07 10:01:00,36.8,33.3,29.86,NNW,339,4.8,9.2,87,0.02,RA,,0.06,120.0,WeatherDisplay:10.37,2013-02-07 09:01:00,
2013-02-07 10:25:00,38.7,35.4,29.86,NNW,327,8.9,12.7,88,0.02,BKN,,0.06,56.0,WeatherDisplay:10.37,2013-02-07 09:25:00,
2013-02-07 10:30:00,38.9,35.3,29.86,NNW,340,5.5,10.4,87,0.02,BKN,,0.06,230.0,WeatherDisplay:10.37,2013-02-07 09:30:00,
2013-02-07 10:35:00,39.1,35.2,29.86,North,356,8.7,11.5,86,0.01,BKN,,0.06,165.0,WeatherDisplay:10.37,2013-02-07 09:35:00,
2013-02-07 10:40:00,39.6,35.1,29.86,North,356,13.0,20.7,84,0.01,BKN,,0.06,95.0,WeatherDisplay:10.37,2013-02-07 09:40:00,
2013-02-07 10:45:00,39.6,34.8,29.87,North,356,6.0,16.1,83,0.01,SCT,,0.06,104.0,WeatherDisplay:10.37,2013-02-07 09:45:00,
2013-02-07 10:50:00,39.3,34.5,29.87,NNW,336,7.3,13.8,83,0.01,SCT,,0.06,90.0,WeatherDisplay:10.37,2013-02-07 09:50:00,
2013-02-07 10:55:00,39.3,34.5,29.87,NW,321,9.5,12.7,83,0.00,SCT,,0.06,315.0,WeatherDisplay:10.37,2013-02-07 09:55:00,
2013-02-07 11:00:00,39.5,34.4,29.87,NNE,13,11.5,18.4,82,0.00,SCT,,0.06,396.0,WeatherDisplay:10.37,2013-02-07 10:00:00,
2013-02-07 11:05:00,39.7,34.3,29.87,NNW,329,9.8,17.3,81,0.00,FEW,,0.06,225.0,WeatherDisplay:10.37,2013-02-07 10:05:00,
2013-02-07 11:10:00,39.7,34.3,29.87,NNW,339,7.2,11.5,81,0.00,FEW,,0.06,257.0,WeatherDisplay:10.37,2013-02-07 10:10:00,
2013-02-07 11:15:00,39.8,34.4,29.87,NNE,16,10.7,15.0,81,0.00,FEW,,0.06,318.0,WeatherDisplay:10.37,2013-02-07 10:15:00,
2013-02-07 11:20:00,40.1,34.4,29.87,NW,323,7.7,10.0,80,0.00,FEW,,0.06,364.0,WeatherDisplay:10.37,2013-02-07 10:20:00,
2013-02-07 11:25:00,40.2,34.5,29.88,NNW,331,9.5,16.1,80,0.00,FEW,,0.06,418.0,WeatherDisplay:10.37,2013-02-07 10:25:00,
2013-02-07 11:30:00,40.2,34.5,29.88,NW,323,6.5,10.4,80,0.00,FEW,,0.06,367.0,WeatherDisplay:10.37,2013-02-07 10:30:00,
2013-02-07 11:35:00,40.2,34.8,29.87,NNW,336,6.3,12.7,81,0.00,FEW,,0.06,369.0,WeatherDisplay:10.37,2013-02-07 10:35:00,
2013-02-07 11:40:00,40.4,35.0,29.87,NNW,345,9.5,13.0,81,0.00,FEW,,0.06,367.0,WeatherDisplay:10.37,2013-02-07 10:40:00,
2013-02-07 11:45:00,40.4,34.7,29.88,WNW,298,11.5,13.8,80,0.00,FEW,,0.06,424.0,WeatherDisplay:10.37,2013-02-07 10:45:00,
2013-02-07 11:50:00,40.6,34.9,29.88,NNE,13,8.7,11.5,80,0.00,FEW,,0.06,332.0,WeatherDisplay:10.37,2013-02-07 10:50:00,
2013-02-07 11:55:00,40.8,35.1,29.88,NW,326,9.4,13.8,80,0.00,FEW,,0.06,174.0,WeatherDisplay:10.37,2013-02-07 10:55:00,
2013-02-07 12:00:00,40.5,34.5,29.88,NW,323,9.7,16.1,79,0.00,FEW,,0.06,84.0,WeatherDisplay:10.37,2013-02-07 11:00:00,
2013-02-07 12:05:00,40.1,35.0,29.87,NNW,339,11.2,16.1,82,0.00,FEW,,0.06,95.0,WeatherDisplay:10.37,2013-02-07 11:05:00,
2013-02-07 12:10:00,40.1,35.3,29.87,NW,317,3.4,8.1,83,0.00,FEW,,0.06,452.0,WeatherDisplay:10.37,2013-02-07 11:10:00,
2013-02-07 12:15:00,40.4,35.6,29.87,North,351,6.7,15.0,83,0.00,FEW,,0.06,213.0,WeatherDisplay:10.37,2013-02-07 11:15:00,
2013-02-07 12:20:00,40.2,35.1,29.87,North,351,4.7,9.2,82,0.00,FEW,,0.06,121.0,WeatherDisplay:10.37,2013-02-07 11:20:00,
2013-02-07 12:25:00,40.0,34.9,29.87,North,7,5.9,8.1,82,0.00,SCT,,0.06,464.0,WeatherDisplay:10.37,2013-02-07 11:25:00,
2013-02-07 12:30:00,40.2,35.4,29.87,North,351,4.6,8.1,83,0.00,SCT,,0.06,118.0,WeatherDisplay:10.37,2013-02-07 11:30:00,
2013-02-07 12:35:00,40.2,35.1,29.87,NNW,344,3.9,11.5,82,0.00,-RA,,0.06,169.0,WeatherDisplay:10.37,2013-02-07 11:35:00,
2013-02-07 12:40:00,40.4,35.3,29.87,North,1,6.6,9.2,82,0.00,-RA,,0.06,134.0,WeatherDisplay:10.37,2013-02-07 11:40:00,
2013-02-07 12:45:00,40.4,35.0,29.87,NW,323,8.3,17.3,81,0.00,-RA,,0.06,468.0,WeatherDisplay:10.37,2013-02-07 11:45:00,
2013-02-07 12:50:00,40.9,35.5,29.87,NW,324,8.4,11.5,81,0.00,-RA,,0.06,540.0,WeatherDisplay:10.37,2013-02-07 11:50:00,
2013-02-07 12:55:00,40.7,34.7,29.87,NNW,345,10.1,15.0,79,0.00,-RA,,0.06,155.0,WeatherDisplay:10.37,2013-02-07 11:55:00,
2013-02-07 13:00:00,40.1,34.1,29.87,NNW,345,7.1,11.5,79,0.00,-RA,,0.06,169.0,WeatherDisplay:10.37,2013-02-07 12:00:00,
2013-02-07 13:05:00,40.1,34.4,29.87,NNW,331,7.8,11.5,80,0.00,-RA,,0.06,415.0,WeatherDisplay:10.37,2013-02-07 12:05:00,
2013-02-07 13:10:00,40.4,35.0,29.87,NW,318,9.3,13.8,81,0.00,-RA,,0.06,420.0,WeatherDisplay:10.37,2013-02-07 12:10:00,
2013-02-07 13:15:00,40.5,35.1,29.87,NNW,339,9.7,14.0,81,0.00,-RA,,0.06,62.0,WeatherDisplay:10.37,2013-02-07 12:15:00,
2013-02-07 13:20:00,40.2,34.8,29.87,NNW,344,8.9,12.7,81,0.00,-RA,,0.06,390.0,WeatherDisplay:10.37,2013-02-07 12:20:00,
2013-02-07 13:25:00,40.4,35.3,29.87,North,9,8.4,12.0,82,0.00,-RA,,0.06,455.0,WeatherDisplay:10.37,2013-02-07 12:25:00,
2013-02-07 13:30:00,40.8,35.7,29.86,NNW,332,7.2,10.0,82,0.00,-RA,,0.06,536.0,WeatherDisplay:10.37,2013-02-07 12:30:00,
2013-02-07 13:35:00,41.3,35.9,29.86,NNW,342,9.1,13.8,81,0.00,-RA,,0.06,520.0,WeatherDisplay:10.37,2013-02-07 12:35:00,
2013-02-07 13:40:00,41.3,35.3,29.86,NNW,327,9.0,11.5,79,0.00,-RA,,0.06,243.0,WeatherDisplay:10.37,2013-02-07 12:40:00,
2013-02-07 13:45:00,41.0,35.0,29.87,NW,313,11.3,21.9,79,0.00,-RA,,0.06,40.0,WeatherDisplay:10.37,2013-02-07 12:45:00,
2013-02-07 13:50:00,40.0,34.0,29.86,NW,317,9.5,11.5,79,0.00,-RA,,0.06,37.0,WeatherDisplay:10.37,2013-02-07 12:50:00,
2013-02-07 13:55:00,39.4,33.7,29.87,NW,324,7.6,12.7,80,0.00,-RA,,0.06,60.0,WeatherDisplay:10.37,2013-02-07 12:55:00,
2013-02-07 14:00:00,39.3,33.9,29.87,NW,319,6.0,10.4,81,0.00,-RA,,0.06,120.0,WeatherDisplay:10.37,2013-02-07 13:00:00,
2013-02-07 14:05:00,39.5,34.7,29.87,NW,325,9.6,11.5,83,0.00,-RA,,0.06,550.0,WeatherDisplay:10.37,2013-02-07 13:05:00,
2013-02-07 14:10:00,39.7,34.6,29.87,North,351,10.3,20.7,82,0.00,-RA,,0.06,90.0,WeatherDisplay:10.37,2013-02-07 13:10:00,
2013-02-07 14:15:00,38.7,34.0,29.87,North,356,10.4,17.3,83,0.00,-RA,,0.06,51.0,WeatherDisplay:10.37,2013-02-07 13:15:00,
2013-02-07 14:20:00,37.8,33.7,29.87,North,351,5.9,9.2,85,0.01,-RA,,0.06,116.0,WeatherDisplay:10.37,2013-02-07 13:20:00,
2013-02-07 14:25:00,37.7,33.9,29.86,North,356,4.2,4.6,86,0.01,RA,,0.06,149.0,WeatherDisplay:10.37,2013-02-07 13:25:00,
2013-02-07 14:30:00,37.7,34.2,29.86,North,1,4.1,5.8,87,0.01,RA,,0.06,392.0,WeatherDisplay:10.37,2013-02-07 13:30:00,
2013-02-07 14:35:00,38.1,34.8,29.86,NNE,13,0.2,3.5,88,0.01,RA,,0.06,441.0,WeatherDisplay:10.37,2013-02-07 13:35:00,
2013-02-07 14:40:00,38.6,35.6,29.87,North,356,3.7,8.1,89,0.01,RA,,0.06,422.0,WeatherDisplay:10.37,2013-02-07 13:40:00,
2013-02-07 14:45:00,38.6,35.3,29.87,NNW,338,5.9,11.5,88,0.02,RA,,0.07,18.0,WeatherDisplay:10.37,2013-02-07 13:45:00,
2013-02-07 14:50:00,38.5,35.2,29.87,North,351,4.0,5.8,88,0.02,RA,,0.07,26.0,WeatherDisplay:10.37,2013-02-07 13:50:00,
2013-02-07 14:55:00,38.5,35.2,29.87,NNW,327,7.7,8.1,88,0.02,RA,,0.07,39.0,WeatherDisplay:10.37,2013-02-07 13:55:00,
2013-02-07 15:00:00,38.4,35.1,29.87,NW,319,7.6,11.5,88,0.02,RA,,0.07,46.0,WeatherDisplay:10.37,2013-02-07 14:00:00,
2013-02-07 15:05:00,38.4,35.1,29.87,NNW,330,4.1,8.1,88,0.02,RA,,0.07,105.0,WeatherDisplay:10.37,2013-02-07 14:05:00,
2013-02-07 15:10:00,38.7,35.1,29.87,North,1,4.9,8.1,87,0.02,RA,,0.07,128.0,WeatherDisplay:10.37,2013-02-07 14:10:00,
2013-02-07 15:15:00,38.9,35.0,29.87,NNW,344,4.8,11.5,86,0.02,BKN,,0.07,70.0,WeatherDisplay:10.37,2013-02-07 14:15:00,
2013-02-07 15:20:00,39.1,35.0,29.87,NW,323,4.6,9.2,85,0.01,BKN,,0.07,37.0,WeatherDisplay:10.37,2013-02-07 14:20:00,
2013-02-07 15:25:00,39.2,35.0,29.87,NNW,333,6.1,9.2,85,0.01,BKN,,0.07,279.0,WeatherDisplay:10.37,2013-02-07 14:25:00,
2013-02-07 15:30:00,39.5,35.0,29.87,NW,309,4.8,6.9,84,0.01,BKN,,0.07,156.0,WeatherDisplay:10.37,2013-02-07 14:30:00,
2013-02-07 15:35:00,39.8,35.3,29.87,NNW,334,11.1,12.0,84,0.01,OVC,,0.07,156.0,WeatherDisplay:10.37,2013-02-07 14:35:00,
2013-02-07 15:40:00,40.0,35.2,29.87,NW,316,6.4,10.4,83,0.01,OVC,,0.07,346.0,WeatherDisplay:10.37,2013-02-07 14:40:00,
2013-02-07 15:45:00,40.3,35.5,29.87,North,1,8.1,11.5,83,0.00,OVC,,0.07,116.0,WeatherDisplay:10.37,2013-02-07 14:45:00,
2013-02-07 15:50:00,40.4,35.6,29.87,NW,305,7.1,8.1,83,0.00,OVC,,0.07,127.0,WeatherDisplay:10.37,2013-02-07 14:50:00,
2013-02-07 15:55:00,40.5,35.7,29.87,North,11,4.3,10.4,83,0.00,OVC,,0.07,163.0,WeatherDisplay:10.37,2013-02-07 14:55:00,
2013-02-07 16:00:00,40.6,35.8,29.86,North,351,4.5,4.6,83,0.00,OVC,,0.07,132.0,WeatherDisplay:10.37,2013-02-07 15:00:00,
2013-02-07 16:05:00,40.3,37.0,29.87,North,351,4.9,9.2,88,0.00,OVC,,0.07,44.0,WeatherDisplay:10.37,2013-02-07 15:05:00,
2013-02-07 16:10:00,39.6,34.8,29.87,NW,320,9.4,13.8,83,0.01,RA,,0.08,62.0,WeatherDisplay:10.37,2013-02-07 15:10:00,
2013-02-07 16:15:00,38.6,34.5,29.87,North,5,3.3,6.9,85,0.02,RA,,0.09,178.0,WeatherDisplay:10.37,2013-02-07 15:15:00,
2013-02-07 16:20:00,38.2,34.7,29.87,North,1,5.6,10.4,87,0.02,RA,,0.09,135.0,WeatherDisplay:10.37,2013-02-07 15:20:00,
2013-02-07 16:25:00,38.2,34.9,29.87,North,356,0.9,5.8,88,0.02,-RA,,0.09,216.0,WeatherDisplay:10.37,2013-02-07 15:25:00,
2013-02-07 16:30:00,38.3,35.3,29.86,North,7,1.5,9.0,89,0.02,-RA,,0.09,90.0,WeatherDisplay:10.37,2013-02-07 15:30:00,
2013-02-07 16:35:00,38.3,35.3,29.86,NNW,329,6.4,12.7,89,0.02,-RA,,0.09,62.0,WeatherDisplay:10.37,2013-02-07 15:35:00,
2013-02-07 16:40:00,38.4,35.1,29.86,NW,305,7.6,11.0,88,0.02,-RA,,0.09,46.0,WeatherDisplay:10.37,2013-02-07 15:40:00,
2013-02-07 16:45:00,38.9,35.0,29.86,NNW,336,6.7,11.5,86,0.02,-RA,,0.09,42.0,WeatherDisplay:10.37,2013-02-07 15:45:00,
2013-02-07 16:50:00,39.3,34.8,29.86,NW,321,6.4,9.2,84,0.02,-RA,,0.09,67.0,WeatherDisplay:10.37,2013-02-07 15:50:00,
2013-02-07 16:55:00,39.5,35.0,29.86,North,1,11.6,17.3,84,0.02,-RA,,0.09,46.0,WeatherDisplay:10.37,2013-02-07 15:55:00,
2013-02-07 17:00:00,39.2,34.1,29.86,NNW,344,5.2,13.8,82,0.02,-RA,,0.09,30.0,WeatherDisplay:10.37,2013-02-07 16:00:00,
2013-02-07 17:05:00,39.0,34.0,29.87,NNW,347,6.6,6.6,82,0.02,BKN,,0.09,14.0,WeatherDisplay:10.37,2013-02-07 16:05:00,
2013-02-07 17:10:00,38.7,34.0,29.87,NNW,342,6.9,11.5,83,0.02,BKN,,0.09,12.0,WeatherDisplay:10.37,2013-02-07 16:10:00,
2013-02-07 17:15:00,38.6,34.2,29.87,North,351,3.2,6.0,84,0.01,BKN,,0.09,11.0,WeatherDisplay:10.37,2013-02-07 16:15:00,
2013-02-07 17:20:00,38.5,34.4,29.87,North,351,3.6,8.1,85,0.00,BKN,,0.09,9.0,WeatherDisplay:10.37,2013-02-07 16:20:00,
2013-02-07 17:25:00,38.2,34.1,29.87,NNW,337,5.4,11.5,85,0.00,BKN,,0.09,7.0,WeatherDisplay:10.37,2013-02-07 16:25:00,
2013-02-07 17:30:00,38.1,34.0,29.87,NNW,340,3.8,6.9,85,0.00,BKN,,0.09,5.0,WeatherDisplay:10.37,2013-02-07 16:30:00,
2013-02-07 17:35:00,38.0,33.9,29.87,NNW,340,0.3,3.5,85,0.00,BKN,,0.09,5.0,WeatherDisplay:10.37,2013-02-07 16:35:00,
2013-02-07 17:40:00,37.8,33.7,29.87,NNW,339,1.2,2.3,85,0.00,BKN,,0.09,0.0,WeatherDisplay:10.37,2013-02-07 16:40:00,
2013-02-07 17:45:00,37.7,33.6,29.87,NNW,338,0.1,6.9,85,0.00,BKN,,0.09,0.0,WeatherDisplay:10.37,2013-02-07 16:45:00,
2013-02-07 17:50:00,37.7,33.6,29.87,NNW,346,6.3,11.5,85,0.00,BKN,,0.09,0.0,WeatherDisplay:10.37,2013-02-07 16:50:00,
2013-02-07 17:55:00,37.6,33.8,29.87,North,351,5.1,8.1,86,0.00,-DZ,,0.09,0.0,WeatherDisplay:10.37,2013-02-07 16:55:00,
2013-02-07 18:00:00,37.2,33.4,29.88,NNW,332,10.8,16.1,86,0.00,-DZ,,0.09,0.0,WeatherDisplay:10.37,2013-02-07 17:00:00,
2013-02-07 18:05:00,36.5,33.0,29.88,NNW,345,6.9,9.2,87,0.01,-DZ,,0.10,0.0,WeatherDisplay:10.37,2013-02-07 17:05:00,
2013-02-07 18:10:00,36.1,33.2,29.88,NW,311,9.2,13.8,89,0.02,-DZ,,0.11,0.0,WeatherDisplay:10.37,2013-02-07 17:10:00,
2013-02-07 18:15:00,35.5,32.6,29.88,WNW,303,8.3,16.1,89,0.02,-DZ,,0.12,0.0,WeatherDisplay:10.37,2013-02-07 17:15:00,
2013-02-07 18:20:00,35.2,32.5,29.88,NW,306,7.6,13.8,90,0.02,-DZ,,0.13,0.0,WeatherDisplay:10.37,2013-02-07 17:20:00,
2013-02-07 18:25:00,35.1,32.7,29.88,WNW,293,3.7,10.4,91,0.03,RA,,0.13,0.0,WeatherDisplay:10.37,2013-02-07 17:25:00,
2013-02-07 18:30:00,35.0,32.6,29.88,WNW,298,7.3,11.5,91,0.03,RA,,0.13,0.0,WeatherDisplay:10.37,2013-02-07 17:30:00,
2013-02-07 18:35:00,34.9,32.8,29.88,NW,306,4.5,9.2,92,0.03,RA,,0.13,0.0,WeatherDisplay:10.37,2013-02-07 17:35:00,
2013-02-07 18:40:00,34.8,32.7,29.88,NW,306,3.7,4.6,92,0.03,RA,,0.13,0.0,WeatherDisplay:10.37,2013-02-07 17:40:00,
2013-02-07 18:45:00,35.0,32.9,29.88,NW,326,7.3,11.5,92,0.03,RA,,0.13,0.0,WeatherDisplay:10.37,2013-02-07 17:45:00,
2013-02-07 18:50:00,35.3,33.5,29.88,NNW,344,5.2,9.2,93,0.04,RA,,0.13,0.0,WeatherDisplay:10.37,2013-02-07 17:50:00,
2013-02-07 18:55:00,35.4,33.6,29.88,North,356,3.2,8.1,93,0.04,RA,,0.13,0.0,WeatherDisplay:10.37,2013-02-07 17:55:00,
2013-02-07 19:00:00,35.5,33.7,29.87,North,351,0.0,2.3,93,0.04,RA,,0.13,0.0,WeatherDisplay:10.37,2013-02-07 18:00:00,
2013-02-07 19:05:00,35.6,33.8,29.87,North,1,6.3,6.9,93,0.03,RA,,0.13,0.0,WeatherDisplay:10.37,2013-02-07 18:05:00,
2013-02-07 19:10:00,35.7,33.9,29.87,NNW,344,5.0,8.1,93,0.02,RA,,0.13,0.0,WeatherDisplay:10.37,2013-02-07 18:10:00,
2013-02-07 19:15:00,35.7,33.6,29.87,NNW,331,2.8,5.8,92,0.02,FEW,,0.13,0.0,WeatherDisplay:10.37,2013-02-07 18:15:00,
2013-02-07 19:20:00,35.8,33.7,29.87,NNW,328,4.5,8.1,92,0.02,FEW,,0.13,0.0,WeatherDisplay:10.37,2013-02-07 18:20:00,
2013-02-07 19:25:00,36.0,33.6,29.87,NW,326,3.1,5.8,91,0.01,FEW,,0.13,0.0,WeatherDisplay:10.37,2013-02-07 18:25:00,
2013-02-07 19:30:00,36.1,33.7,29.87,NW,319,3.2,4.6,91,0.01,FEW,,0.13,0.0,WeatherDisplay:10.37,2013-02-07 18:30:00,
2013-02-07 19:35:00,36.1,33.4,29.87,NW,318,2.6,3.5,90,0.01,FEW,,0.13,0.0,WeatherDisplay:10.37,2013-02-07 18:35:00,
2013-02-07 19:40:00,36.1,33.4,29.87,NW,318,2.0,3.5,90,0.01,FEW,,0.13,0.0,WeatherDisplay:10.37,2013-02-07 18:40:00,
2013-02-07 19:45:00,36.1,33.4,29.88,NW,318,0.0,0.0,90,0.01,FEW,,0.13,0.0,WeatherDisplay:10.37,2013-02-07 18:45:00,
2013-02-07 19:50:00,36.0,33.3,29.88,NW,318,0.0,0.0,90,0.00,FEW,,0.13,0.0,WeatherDisplay:10.37,2013-02-07 18:50:00,
2013-02-07 19:55:00,35.9,33.2,29.88,NW,318,0.0,0.0,90,0.00,FEW,,0.13,0.0,WeatherDisplay:10.37,2013-02-07 18:55:00,
2013-02-07 20:00:00,35.8,33.1,29.88,NW,318,0.0,0.0,90,0.00,FEW,,0.13,0.0,WeatherDisplay:10.37,2013-02-07 19:00:00,
2013-02-07 20:05:00,35.8,33.4,29.88,NW,318,0.0,0.0,91,0.00,FEW,,0.13,0.0,WeatherDisplay:10.37,2013-02-07 19:05:00,
2013-02-07 20:10:00,35.7,33.3,29.88,NW,318,0.0,0.0,91,0.00,FEW,,0.13,0.0,WeatherDisplay:10.37,2013-02-07 19:10:00,
2013-02-07 20:15:00,35.6,33.2,29.88,NW,318,0.0,0.0,91,0.00,FEW,,0.13,0.0,WeatherDisplay:10.37,2013-02-07 19:15:00,
2013-02-07 20:20:00,35.5,33.1,29.88,NW,318,0.0,0.0,91,0.00,FEW,,0.13,0.0,WeatherDisplay:10.37,2013-02-07 19:20:00,
2013-02-07 20:25:00,35.2,32.8,29.88,NW,318,0.0,0.0,91,0.00,FEW,,0.13,0.0,WeatherDisplay:10.37,2013-02-07 19:25:00,
2013-02-07 20:30:00,35.1,32.7,29.88,NW,318,0.0,0.0,91,0.00,FEW,,0.13,0.0,WeatherDisplay:10.37,2013-02-07 19:30:00,
2013-02-07 20:35:00,35.0,32.6,29.88,NW,318,0.0,0.0,91,0.00,FEW,,0.13,0.0,WeatherDisplay:10.37,2013-02-07 19:35:00,
2013-02-07 20:40:00,35.1,33.0,29.88,NW,318,0.0,0.0,92,0.00,FEW,,0.13,0.0,WeatherDisplay:10.37,2013-02-07 19:40:00,
2013-02-07 20:45:00,35.3,33.2,29.88,NW,318,1.6,3.5,92,0.00,FEW,,0.13,0.0,WeatherDisplay:10.37,2013-02-07 19:45:00,
2013-02-07 20:50:00,35.8,33.7,29.88,NW,318,3.8,3.8,92,0.00,FEW,,0.13,0.0,WeatherDisplay:10.37,2013-02-07 19:50:00,
2013-02-07 20:55:00,36.1,34.0,29.88,NW,318,4.3,5.0,92,0.00,FEW,,0.13,0.0,WeatherDisplay:10.37,2013-02-07 19:55:00,
2013-02-07 21:00:00,36.4,34.3,29.88,NW,307,4.7,5.8,92,0.00,FEW,,0.13,0.0,WeatherDisplay:10.37,2013-02-07 20:00:00,
2013-02-07 21:05:00,36.8,34.7,29.88,NNW,327,6.5,11.5,92,0.00,FEW,,0.13,0.0,WeatherDisplay:10.37,2013-02-07 20:05:00,
2013-02-07 21:10:00,37.0,34.6,29.88,NW,312,6.9,11.5,91,0.00,FEW,,0.13,0.0,WeatherDisplay:10.37,2013-02-07 20:10:00,
2013-02-07 21:15:00,37.0,34.6,29.88,NW,315,6.3,11.0,91,0.00,FEW,,0.13,0.0,WeatherDisplay:10.37,2013-02-07 20:15:00,
2013-02-07 21:20:00,36.8,34.4,29.88,NW,312,5.8,9.2,91,0.00,FEW,,0.13,0.0,WeatherDisplay:10.37,2013-02-07 20:20:00,
2013-02-07 21:25:00,36.6,34.2,29.88,NW,312,7.3,11.5,91,0.00,BKN,,0.13,0.0,WeatherDisplay:10.37,2013-02-07 20:25:00,
2013-02-07 21:30:00,36.3,33.9,29.88,NW,305,6.5,10.4,91,0.00,BKN,,0.13,0.0,WeatherDisplay:10.37,2013-02-07 20:30:00,
2013-02-07 21:35:00,36.2,33.8,29.88,WNW,302,7.0,9.2,91,0.00,BKN,,0.13,0.0,WeatherDisplay:10.37,2013-02-07 20:35:00,
2013-02-07 21:40:00,36.0,33.6,29.88,WNW,297,6.0,8.1,91,0.00,BKN,,0.13,0.0,WeatherDisplay:10.37,2013-02-07 20:40:00,
2013-02-07 21:45:00,35.9,33.5,29.88,NW,307,7.0,12.7,91,0.00,BKN,,0.13,0.0,WeatherDisplay:10.37,2013-02-07 20:45:00,
2013-02-07 21:50:00,35.9,33.5,29.88,WNW,298,4.9,8.1,91,0.00,BKN,,0.13,0.0,WeatherDisplay:10.37,2013-02-07 20:50:00,
2013-02-07 21:55:00,35.9,33.5,29.88,NW,321,1.8,4.6,91,0.00,BKN,,0.13,0.0,WeatherDisplay:10.37,2013-02-07 20:55:00,
2013-02-07 22:00:00,36.1,33.7,29.87,NNW,328,5.5,8.1,91,0.00,BKN,,0.13,0.0,WeatherDisplay:10.37,2013-02-07 21:00:00,
2013-02-07 22:05:00,36.3,33.9,29.87,NNW,327,1.3,3.5,91,0.00,BKN,,0.13,0.0,WeatherDisplay:10.37,2013-02-07 21:05:00,
2013-02-07 22:10:00,36.3,33.6,29.87,NNW,327,1.1,3.5,90,0.00,BKN,,0.13,0.0,WeatherDisplay:10.37,2013-02-07 21:10:00,
2013-02-07 22:15:00,36.2,33.5,29.87,NNW,327,0.0,0.0,90,0.00,FEW,,0.13,0.0,WeatherDisplay:10.37,2013-02-07 21:15:00,
2013-02-07 22:20:00,36.0,33.3,29.87,NNW,327,0.1,1.1,90,0.00,FEW,,0.13,0.0,WeatherDisplay:10.37,2013-02-07 21:20:00,
2013-02-07 22:25:00,35.8,33.1,29.87,NNW,327,0.0,0.0,90,0.00,FEW,,0.13,0.0,WeatherDisplay:10.37,2013-02-07 21:25:00,
2013-02-07 22:30:00,35.7,33.0,29.87,NNW,327,0.0,0.0,90,0.00,FEW,,0.13,0.0,WeatherDisplay:10.37,2013-02-07 21:30:00,
2013-02-07 22:35:00,35.7,33.0,29.87,NW,323,0.7,0.0,90,0.00,FEW,,0.13,0.0,WeatherDisplay:10.37,2013-02-07 21:35:00,
2013-02-07 22:40:00,35.7,33.0,29.87,NW,320,3.3,4.0,90,0.00,FEW,,0.13,0.0,WeatherDisplay:10.37,2013-02-07 21:40:00,
2013-02-07 22:45:00,36.1,33.7,29.87,NW,313,4.4,5.8,91,0.00,SCT,,0.13,0.0,WeatherDisplay:10.37,2013-02-07 21:45:00,
2013-02-07 22:50:00,36.4,33.7,29.88,NW,315,7.5,10.0,90,0.00,SCT,,0.13,0.0,WeatherDisplay:10.37,2013-02-07 21:50:00,
2013-02-07 22:55:00,36.7,33.7,29.88,NNW,338,6.4,6.9,89,0.00,SCT,,0.13,0.0,WeatherDisplay:10.37,2013-02-07 21:55:00,
2013-02-07 23:00:00,36.8,33.8,29.88,NNW,341,4.5,7.0,89,0.00,SCT,,0.13,0.0,WeatherDisplay:10.37,2013-02-07 22:00:00,
2013-02-07 23:05:00,36.9,33.9,29.87,NNW,331,5.0,6.9,89,0.00,SCT,,0.13,0.0,WeatherDisplay:10.37,2013-02-07 22:05:00,
2013-02-07 23:10:00,36.8,33.8,29.87,North,356,1.7,4.6,89,0.00,SCT,,0.13,0.0,WeatherDisplay:10.37,2013-02-07 22:10:00,
2013-02-07 23:15:00,36.7,34.0,29.87,North,356,1.2,4.6,90,0.00,SCT,,0.13,0.0,WeatherDisplay:10.37,2013-02-07 22:15:00,
2013-02-07 23:20:00,36.5,33.8,29.87,North,356,0.0,0.0,90,0.00,SCT,,0.13,0.0,WeatherDisplay:10.37,2013-02-07 22:20:00,
2013-02-07 23:25:00,36.4,33.7,29.87,North,356,0.0,0.0,90,0.00,SCT,,0.13,0.0,WeatherDisplay:10.37,2013-02-07 22:25:00,
2013-02-07 23:30:00,36.4,33.7,29.87,North,5,0.0,0.0,90,0.00,SCT,,0.13,0.0,WeatherDisplay:10.37,2013-02-07 22:30:00,
2013-02-07 23:35:00,36.3,33.6,29.87,North,5,0.0,0.0,90,0.00,SCT,,0.13,0.0,WeatherDisplay:10.37,2013-02-07 22:35:00,
2013-02-07 23:40:00,36.3,33.6,29.87,NW,312,4.4,7.0,90,0.00,SCT,,0.13,0.0,WeatherDisplay:10.37,2013-02-07 22:40:00,
2013-02-07 23:45:00,36.3,33.3,29.87,NW,307,4.4,4.6,89,0.00,SCT,,0.13,0.0,WeatherDisplay:10.37,2013-02-07 22:45:00,
2013-02-07 23:50:00,36.4,33.4,29.87,NW,307,2.7,4.6,89,0.00,SCT,,0.13,0.0,WeatherDisplay:10.37,2013-02-07 22:50:00,
2013-02-07 23:55:00,36.3,33.3,29.87,NW,307,3.4,4.6,89,0.00,SCT,,0.13,0.0,WeatherDisplay:10.37,2013-02-07 22:55:00,